sensor_id;sensor_type;location;lat;lon;timestamp;P1;durP1;ratioP1;P2;durP2;ratioP2
16800;SDS011;8518;53.236;10.384;2023-04-26T00:03:34;6.93;;;2.47;;
16800;SDS011;8518;53.236;10.384;2023-04-26T00:05:59;9.00;;;2.63;;
16800;SDS011;8518;53.236;10.384;2023-04-26T00:08:28;6.17;;;2.13;;
16800;SDS011;8518;53.236;10.384;2023-04-26T00:10:53;8.27;;;1.97;;
16800;SDS011;8518;53.236;10.384;2023-04-26T00:16:41;6.00;;;1.77;;
16800;SDS011;8518;53.236;10.384;2023-04-26T00:19:07;9.33;;;2.33;;
16800;SDS011;8518;53.236;10.384;2023-04-26T00:21:33;7.53;;;1.90;;
16800;SDS011;8518;53.236;10.384;2023-04-26T00:27:21;7.90;;;2.07;;
16800;SDS011;8518;53.236;10.384;2023-04-26T00:33:11;6.30;;;1.77;;
16800;SDS011;8518;53.236;10.384;2023-04-26T00:35:37;8.93;;;2.03;;
16800;SDS011;8518;53.236;10.384;2023-04-26T00:38:03;4.93;;;1.80;;
16800;SDS011;8518;53.236;10.384;2023-04-26T00:40:29;8.87;;;2.00;;
16800;SDS011;8518;53.236;10.384;2023-04-26T00:46:17;7.40;;;2.63;;
16800;SDS011;8518;53.236;10.384;2023-04-26T00:48:43;7.17;;;2.10;;
16800;SDS011;8518;53.236;10.384;2023-04-26T00:51:08;8.30;;;2.57;;
16800;SDS011;8518;53.236;10.384;2023-04-26T00:56:56;5.83;;;1.87;;
16800;SDS011;8518;53.236;10.384;2023-04-26T00:59:25;6.03;;;1.90;;
16800;SDS011;8518;53.236;10.384;2023-04-26T01:01:50;7.07;;;1.87;;
16800;SDS011;8518;53.236;10.384;2023-04-26T01:07:38;7.17;;;2.13;;
16800;SDS011;8518;53.236;10.384;2023-04-26T01:13:26;13.27;;;2.40;;
16800;SDS011;8518;53.236;10.384;2023-04-26T01:15:53;6.73;;;1.97;;
16800;SDS011;8518;53.236;10.384;2023-04-26T01:18:20;7.83;;;2.47;;
16800;SDS011;8518;53.236;10.384;2023-04-26T01:20:45;7.43;;;2.40;;
16800;SDS011;8518;53.236;10.384;2023-04-26T01:26:34;7.97;;;2.20;;
16800;SDS011;8518;53.236;10.384;2023-04-26T01:29:00;8.30;;;2.43;;
16800;SDS011;8518;53.236;10.384;2023-04-26T01:31:37;7.60;;;2.33;;
16800;SDS011;8518;53.236;10.384;2023-04-26T01:37:25;8.57;;;2.13;;
16800;SDS011;8518;53.236;10.384;2023-04-26T01:43:13;3.43;;;2.10;;
16800;SDS011;8518;53.236;10.384;2023-04-26T01:45:46;5.23;;;2.27;;
16800;SDS011;8518;53.236;10.384;2023-04-26T01:48:12;6.10;;;2.20;;
16800;SDS011;8518;53.236;10.384;2023-04-26T01:50:37;8.57;;;2.87;;
16800;SDS011;8518;53.236;10.384;2023-04-26T01:56:27;9.40;;;2.40;;
16800;SDS011;8518;53.236;10.384;2023-04-26T02:02:15;8.17;;;2.80;;
16800;SDS011;8518;53.236;10.384;2023-04-26T02:04:42;8.33;;;3.00;;
16800;SDS011;8518;53.236;10.384;2023-04-26T02:07:09;6.40;;;2.77;;
16800;SDS011;8518;53.236;10.384;2023-04-26T02:09:35;7.53;;;3.10;;
16800;SDS011;8518;53.236;10.384;2023-04-26T02:12:00;7.77;;;3.33;;
16800;SDS011;8518;53.236;10.384;2023-04-26T02:17:48;5.93;;;2.60;;
16800;SDS011;8518;53.236;10.384;2023-04-26T02:23:49;6.47;;;2.57;;
16800;SDS011;8518;53.236;10.384;2023-04-26T02:26:15;10.00;;;3.37;;
16800;SDS011;8518;53.236;10.384;2023-04-26T02:28:40;11.03;;;3.40;;
16800;SDS011;8518;53.236;10.384;2023-04-26T02:31:06;8.47;;;3.30;;
16800;SDS011;8518;53.236;10.384;2023-04-26T02:36:54;7.17;;;3.37;;
16800;SDS011;8518;53.236;10.384;2023-04-26T02:39:19;6.30;;;2.60;;
16800;SDS011;8518;53.236;10.384;2023-04-26T02:41:45;9.43;;;3.00;;
16800;SDS011;8518;53.236;10.384;2023-04-26T02:47:33;5.57;;;2.63;;
16800;SDS011;8518;53.236;10.384;2023-04-26T02:50:01;8.33;;;3.10;;
16800;SDS011;8518;53.236;10.384;2023-04-26T02:52:29;8.93;;;3.27;;
16800;SDS011;8518;53.236;10.384;2023-04-26T02:54:55;9.30;;;3.00;;
16800;SDS011;8518;53.236;10.384;2023-04-26T02:57:20;9.03;;;2.93;;
16800;SDS011;8518;53.236;10.384;2023-04-26T02:59:46;6.77;;;2.87;;
16800;SDS011;8518;53.236;10.384;2023-04-26T03:02:11;8.80;;;2.70;;
16800;SDS011;8518;53.236;10.384;2023-04-26T03:07:59;5.97;;;2.70;;
16800;SDS011;8518;53.236;10.384;2023-04-26T03:10:25;6.47;;;2.87;;
16800;SDS011;8518;53.236;10.384;2023-04-26T03:16:13;9.63;;;2.87;;
16800;SDS011;8518;53.236;10.384;2023-04-26T03:22:00;10.07;;;2.80;;
16800;SDS011;8518;53.236;10.384;2023-04-26T03:27:48;8.33;;;3.30;;
16800;SDS011;8518;53.236;10.384;2023-04-26T03:30:14;9.27;;;3.20;;
16800;SDS011;8518;53.236;10.384;2023-04-26T03:32:40;7.63;;;3.33;;
16800;SDS011;8518;53.236;10.384;2023-04-26T03:35:05;7.33;;;3.40;;
16800;SDS011;8518;53.236;10.384;2023-04-26T03:37:31;7.37;;;2.90;;
16800;SDS011;8518;53.236;10.384;2023-04-26T03:39:56;8.50;;;3.03;;
16800;SDS011;8518;53.236;10.384;2023-04-26T03:42:22;6.27;;;2.67;;
16800;SDS011;8518;53.236;10.384;2023-04-26T03:44:48;9.10;;;2.87;;
16800;SDS011;8518;53.236;10.384;2023-04-26T03:47:15;5.43;;;3.10;;
16800;SDS011;8518;53.236;10.384;2023-04-26T03:49:40;7.80;;;3.23;;
16800;SDS011;8518;53.236;10.384;2023-04-26T03:52:06;8.00;;;2.73;;
16800;SDS011;8518;53.236;10.384;2023-04-26T03:57:54;10.17;;;3.00;;
16800;SDS011;8518;53.236;10.384;2023-04-26T04:00:19;9.73;;;3.20;;
16800;SDS011;8518;53.236;10.384;2023-04-26T04:06:07;8.43;;;3.00;;
16800;SDS011;8518;53.236;10.384;2023-04-26T04:11:55;9.00;;;2.83;;
16800;SDS011;8518;53.236;10.384;2023-04-26T04:17:43;7.97;;;3.17;;
16800;SDS011;8518;53.236;10.384;2023-04-26T04:20:08;10.10;;;3.30;;
16800;SDS011;8518;53.236;10.384;2023-04-26T04:22:35;9.40;;;3.10;;
16800;SDS011;8518;53.236;10.384;2023-04-26T04:25:00;8.77;;;3.17;;
16800;SDS011;8518;53.236;10.384;2023-04-26T04:27:28;7.30;;;3.33;;
16800;SDS011;8518;53.236;10.384;2023-04-26T04:29:54;10.00;;;3.33;;
16800;SDS011;8518;53.236;10.384;2023-04-26T04:32:21;8.50;;;3.60;;
16800;SDS011;8518;53.236;10.384;2023-04-26T04:34:47;9.50;;;3.40;;
16800;SDS011;8518;53.236;10.384;2023-04-26T04:37:14;7.97;;;3.27;;
16800;SDS011;8518;53.236;10.384;2023-04-26T04:39:39;7.57;;;3.07;;
16800;SDS011;8518;53.236;10.384;2023-04-26T04:42:05;10.53;;;3.47;;
16800;SDS011;8518;53.236;10.384;2023-04-26T04:47:53;6.57;;;3.43;;
16800;SDS011;8518;53.236;10.384;2023-04-26T04:50:18;8.60;;;3.63;;
16800;SDS011;8518;53.236;10.384;2023-04-26T04:56:07;7.17;;;2.87;;
16800;SDS011;8518;53.236;10.384;2023-04-26T04:58:33;5.60;;;2.90;;
16800;SDS011;8518;53.236;10.384;2023-04-26T05:00:58;5.20;;;2.70;;
16800;SDS011;8518;53.236;10.384;2023-04-26T05:06:47;5.97;;;2.90;;
16800;SDS011;8518;53.236;10.384;2023-04-26T05:09:12;6.93;;;3.50;;
16800;SDS011;8518;53.236;10.384;2023-04-26T05:11:38;8.00;;;3.33;;
16800;SDS011;8518;53.236;10.384;2023-04-26T05:17:26;7.90;;;3.43;;
16800;SDS011;8518;53.236;10.384;2023-04-26T05:19:51;5.83;;;3.20;;
16800;SDS011;8518;53.236;10.384;2023-04-26T05:22:17;8.60;;;3.40;;
16800;SDS011;8518;53.236;10.384;2023-04-26T05:24:45;7.33;;;3.03;;
16800;SDS011;8518;53.236;10.384;2023-04-26T05:27:11;8.40;;;3.27;;
16800;SDS011;8518;53.236;10.384;2023-04-26T05:29:37;8.30;;;3.30;;
16800;SDS011;8518;53.236;10.384;2023-04-26T05:32:03;9.23;;;3.33;;
16800;SDS011;8518;53.236;10.384;2023-04-26T05:37:51;7.70;;;2.90;;
16800;SDS011;8518;53.236;10.384;2023-04-26T05:40:16;7.17;;;2.77;;
16800;SDS011;8518;53.236;10.384;2023-04-26T05:42:42;7.83;;;3.23;;
16800;SDS011;8518;53.236;10.384;2023-04-26T05:45:08;6.77;;;3.10;;
16800;SDS011;8518;53.236;10.384;2023-04-26T05:47:34;8.23;;;3.00;;
16800;SDS011;8518;53.236;10.384;2023-04-26T05:50:00;4.73;;;2.70;;
16800;SDS011;8518;53.236;10.384;2023-04-26T05:52:26;7.53;;;2.80;;
16800;SDS011;8518;53.236;10.384;2023-04-26T05:54:52;7.50;;;3.20;;
16800;SDS011;8518;53.236;10.384;2023-04-26T05:57:18;7.50;;;2.57;;
16800;SDS011;8518;53.236;10.384;2023-04-26T05:59:43;6.73;;;3.10;;
16800;SDS011;8518;53.236;10.384;2023-04-26T06:02:09;6.57;;;2.70;;
16800;SDS011;8518;53.236;10.384;2023-04-26T06:07:58;8.77;;;2.50;;
16800;SDS011;8518;53.236;10.384;2023-04-26T06:10:24;9.40;;;2.90;;
16800;SDS011;8518;53.236;10.384;2023-04-26T06:16:11;4.37;;;2.30;;
16800;SDS011;8518;53.236;10.384;2023-04-26T06:22:01;6.37;;;2.40;;
16800;SDS011;8518;53.236;10.384;2023-04-26T06:27:48;7.53;;;2.50;;
16800;SDS011;8518;53.236;10.384;2023-04-26T06:30:14;6.07;;;2.47;;
16800;SDS011;8518;53.236;10.384;2023-04-26T06:32:40;9.33;;;2.50;;
16800;SDS011;8518;53.236;10.384;2023-04-26T06:35:06;8.50;;;2.63;;
16800;SDS011;8518;53.236;10.384;2023-04-26T06:37:35;6.20;;;2.33;;
16800;SDS011;8518;53.236;10.384;2023-04-26T06:40:03;5.37;;;2.07;;
16800;SDS011;8518;53.236;10.384;2023-04-26T06:42:30;8.13;;;2.83;;
16800;SDS011;8518;53.236;10.384;2023-04-26T06:44:55;4.90;;;2.20;;
16800;SDS011;8518;53.236;10.384;2023-04-26T06:47:23;9.23;;;2.73;;
16800;SDS011;8518;53.236;10.384;2023-04-26T06:49:51;5.87;;;2.30;;
16800;SDS011;8518;53.236;10.384;2023-04-26T06:52:17;7.00;;;2.80;;
16800;SDS011;8518;53.236;10.384;2023-04-26T06:54:43;6.20;;;2.47;;
16800;SDS011;8518;53.236;10.384;2023-04-26T06:57:08;9.30;;;2.73;;
16800;SDS011;8518;53.236;10.384;2023-04-26T06:59:34;10.73;;;2.63;;
16800;SDS011;8518;53.236;10.384;2023-04-26T07:01:59;6.97;;;2.83;;
16800;SDS011;8518;53.236;10.384;2023-04-26T07:07:53;6.77;;;2.90;;
16800;SDS011;8518;53.236;10.384;2023-04-26T07:10:19;8.43;;;2.70;;
16800;SDS011;8518;53.236;10.384;2023-04-26T07:16:10;6.60;;;2.30;;
16800;SDS011;8518;53.236;10.384;2023-04-26T07:18:35;5.57;;;2.30;;
16800;SDS011;8518;53.236;10.384;2023-04-26T07:21:01;4.50;;;2.50;;
16800;SDS011;8518;53.236;10.384;2023-04-26T07:26:48;7.90;;;2.53;;
16800;SDS011;8518;53.236;10.384;2023-04-26T07:29:14;7.70;;;2.67;;
16800;SDS011;8518;53.236;10.384;2023-04-26T07:31:40;9.93;;;2.73;;
16800;SDS011;8518;53.236;10.384;2023-04-26T07:37:27;5.97;;;2.60;;
16800;SDS011;8518;53.236;10.384;2023-04-26T07:39:53;6.50;;;2.00;;
16800;SDS011;8518;53.236;10.384;2023-04-26T07:42:18;6.27;;;2.20;;
16800;SDS011;8518;53.236;10.384;2023-04-26T07:44:47;7.40;;;2.13;;
16800;SDS011;8518;53.236;10.384;2023-04-26T07:47:13;6.10;;;2.20;;
16800;SDS011;8518;53.236;10.384;2023-04-26T07:49:39;6.87;;;2.37;;
16800;SDS011;8518;53.236;10.384;2023-04-26T07:52:09;5.37;;;2.07;;
16800;SDS011;8518;53.236;10.384;2023-04-26T07:57:57;6.57;;;2.07;;
16800;SDS011;8518;53.236;10.384;2023-04-26T08:00:23;8.07;;;2.30;;
16800;SDS011;8518;53.236;10.384;2023-04-26T08:06:11;6.57;;;2.20;;
16800;SDS011;8518;53.236;10.384;2023-04-26T08:11:59;5.43;;;2.03;;
16800;SDS011;8518;53.236;10.384;2023-04-26T08:17:47;6.93;;;2.10;;
16800;SDS011;8518;53.236;10.384;2023-04-26T08:23:34;5.50;;;1.60;;
16800;SDS011;8518;53.236;10.384;2023-04-26T08:26:00;5.87;;;1.83;;
16800;SDS011;8518;53.236;10.384;2023-04-26T08:28:26;6.17;;;1.93;;
16800;SDS011;8518;53.236;10.384;2023-04-26T08:30:52;4.10;;;1.20;;
16800;SDS011;8518;53.236;10.384;2023-04-26T08:36:40;4.67;;;1.67;;
16800;SDS011;8518;53.236;10.384;2023-04-26T08:39:06;4.87;;;1.53;;
16800;SDS011;8518;53.236;10.384;2023-04-26T08:41:34;5.40;;;1.93;;
16800;SDS011;8518;53.236;10.384;2023-04-26T08:50:22;4.43;;;1.30;;
16800;SDS011;8518;53.236;10.384;2023-04-26T08:56:10;6.10;;;1.57;;
16800;SDS011;8518;53.236;10.384;2023-04-26T08:58:37;4.73;;;1.37;;
16800;SDS011;8518;53.236;10.384;2023-04-26T09:01:02;5.18;;;1.42;;
16800;SDS011;8518;53.236;10.384;2023-04-26T09:06:51;4.53;;;1.53;;
16800;SDS011;8518;53.236;10.384;2023-04-26T09:12:42;2.78;;;1.38;;
16800;SDS011;8518;53.236;10.384;2023-04-26T09:15:08;2.15;;;1.27;;
16800;SDS011;8518;53.236;10.384;2023-04-26T09:17:37;5.37;;;1.60;;
16800;SDS011;8518;53.236;10.384;2023-04-26T09:20:18;4.20;;;1.73;;
16800;SDS011;8518;53.236;10.384;2023-04-26T09:26:14;4.13;;;1.40;;
16800;SDS011;8518;53.236;10.384;2023-04-26T09:32:03;4.10;;;1.50;;
16800;SDS011;8518;53.236;10.384;2023-04-26T09:38:10;2.50;;;1.07;;
16800;SDS011;8518;53.236;10.384;2023-04-26T09:43:59;3.03;;;1.47;;
16800;SDS011;8518;53.236;10.384;2023-04-26T09:46:24;3.63;;;1.40;;
16800;SDS011;8518;53.236;10.384;2023-04-26T09:49:00;7.90;;;1.77;;
16800;SDS011;8518;53.236;10.384;2023-04-26T09:51:26;5.67;;;1.47;;
16800;SDS011;8518;53.236;10.384;2023-04-26T09:57:15;10.53;;;1.80;;
16800;SDS011;8518;53.236;10.384;2023-04-26T09:59:43;4.23;;;1.20;;
16800;SDS011;8518;53.236;10.384;2023-04-26T10:04:41;2.00;;;0.80;;
16800;SDS011;8518;53.236;10.384;2023-04-26T10:07:11;2.80;;;0.80;;
16800;SDS011;8518;53.236;10.384;2023-04-26T10:09:38;4.13;;;1.27;;
16800;SDS011;8518;53.236;10.384;2023-04-26T10:12:05;4.07;;;1.20;;
16800;SDS011;8518;53.236;10.384;2023-04-26T10:17:55;5.60;;;1.20;;
16800;SDS011;8518;53.236;10.384;2023-04-26T10:20:23;3.27;;;1.10;;
16800;SDS011;8518;53.236;10.384;2023-04-26T10:29:22;3.42;;;1.05;;
16800;SDS011;8518;53.236;10.384;2023-04-26T10:40:32;2.45;;;0.90;;
16800;SDS011;8518;53.236;10.384;2023-04-26T10:46:41;3.53;;;0.90;;
16800;SDS011;8518;53.236;10.384;2023-04-26T10:49:17;3.15;;;1.02;;
16800;SDS011;8518;53.236;10.384;2023-04-26T10:54:48;3.53;;;1.20;;
16800;SDS011;8518;53.236;10.384;2023-04-26T10:57:25;2.55;;;1.08;;
16800;SDS011;8518;53.236;10.384;2023-04-26T11:06:10;3.77;;;1.17;;
16800;SDS011;8518;53.236;10.384;2023-04-26T11:08:39;3.00;;;1.10;;
16800;SDS011;8518;53.236;10.384;2023-04-26T11:11:11;3.87;;;1.20;;
16800;SDS011;8518;53.236;10.384;2023-04-26T11:17:03;3.53;;;1.13;;
16800;SDS011;8518;53.236;10.384;2023-04-26T11:19:30;4.00;;;1.07;;
16800;SDS011;8518;53.236;10.384;2023-04-26T11:21:57;1.33;;;0.63;;
16800;SDS011;8518;53.236;10.384;2023-04-26T11:27:48;3.77;;;1.00;;
16800;SDS011;8518;53.236;10.384;2023-04-26T11:30:13;3.23;;;0.70;;
16800;SDS011;8518;53.236;10.384;2023-04-26T11:36:07;2.17;;;0.80;;
16800;SDS011;8518;53.236;10.384;2023-04-26T11:38:32;1.80;;;0.87;;
16800;SDS011;8518;53.236;10.384;2023-04-26T11:41:04;3.13;;;0.90;;
16800;SDS011;8518;53.236;10.384;2023-04-26T11:47:24;1.57;;;0.70;;
16800;SDS011;8518;53.236;10.384;2023-04-26T11:49:43;3.30;;;0.67;;
16800;SDS011;8518;53.236;10.384;2023-04-26T11:52:11;1.47;;;0.87;;
16800;SDS011;8518;53.236;10.384;2023-04-26T11:57:59;3.97;;;0.90;;
16800;SDS011;8518;53.236;10.384;2023-04-26T12:00:58;1.43;;;1.13;;
16800;SDS011;8518;53.236;10.384;2023-04-26T12:06:47;2.80;;;1.10;;
16800;SDS011;8518;53.236;10.384;2023-04-26T12:09:14;4.60;;;1.10;;
16800;SDS011;8518;53.236;10.384;2023-04-26T12:11:46;3.70;;;1.57;;
16800;SDS011;8518;53.236;10.384;2023-04-26T12:17:50;3.07;;;1.00;;
16800;SDS011;8518;53.236;10.384;2023-04-26T12:20:17;1.60;;;0.90;;
16800;SDS011;8518;53.236;10.384;2023-04-26T12:26:06;5.63;;;1.05;;
16800;SDS011;8518;53.236;10.384;2023-04-26T12:28:34;3.67;;;1.25;;
16800;SDS011;8518;53.236;10.384;2023-04-26T12:31:00;2.63;;;1.27;;
16800;SDS011;8518;53.236;10.384;2023-04-26T12:36:50;3.00;;;1.00;;
16800;SDS011;8518;53.236;10.384;2023-04-26T12:39:15;4.97;;;1.43;;
16800;SDS011;8518;53.236;10.384;2023-04-26T12:41:41;4.30;;;1.10;;
16800;SDS011;8518;53.236;10.384;2023-04-26T12:47:30;4.40;;;1.40;;
16800;SDS011;8518;53.236;10.384;2023-04-26T12:49:56;3.67;;;1.03;;
16800;SDS011;8518;53.236;10.384;2023-04-26T12:52:24;4.47;;;1.27;;
16800;SDS011;8518;53.236;10.384;2023-04-26T12:54:52;4.77;;;1.50;;
16800;SDS011;8518;53.236;10.384;2023-04-26T12:57:18;5.97;;;1.67;;
16800;SDS011;8518;53.236;10.384;2023-04-26T12:59:45;5.03;;;1.83;;
16800;SDS011;8518;53.236;10.384;2023-04-26T13:02:11;5.87;;;1.70;;
16800;SDS011;8518;53.236;10.384;2023-04-26T13:07:59;4.53;;;1.83;;
16800;SDS011;8518;53.236;10.384;2023-04-26T13:10:27;6.87;;;2.00;;
16800;SDS011;8518;53.236;10.384;2023-04-26T13:16:15;5.90;;;1.60;;
16800;SDS011;8518;53.236;10.384;2023-04-26T13:18:40;5.30;;;1.60;;
16800;SDS011;8518;53.236;10.384;2023-04-26T13:21:06;2.70;;;1.50;;
16800;SDS011;8518;53.236;10.384;2023-04-26T13:26:54;4.67;;;1.33;;
16800;SDS011;8518;53.236;10.384;2023-04-26T13:32:42;1.63;;;1.10;;
16800;SDS011;8518;53.236;10.384;2023-04-26T13:35:08;3.60;;;1.60;;
16800;SDS011;8518;53.236;10.384;2023-04-26T13:37:35;3.63;;;1.30;;
16800;SDS011;8518;53.236;10.384;2023-04-26T13:40:03;4.57;;;1.43;;
16800;SDS011;8518;53.236;10.384;2023-04-26T13:42:30;3.33;;;0.93;;
16800;SDS011;8518;53.236;10.384;2023-04-26T13:44:56;2.77;;;1.00;;
16800;SDS011;8518;53.236;10.384;2023-04-26T13:47:22;3.73;;;0.90;;
16800;SDS011;8518;53.236;10.384;2023-04-26T13:49:51;2.80;;;1.00;;
16800;SDS011;8518;53.236;10.384;2023-04-26T13:52:16;3.90;;;1.10;;
16800;SDS011;8518;53.236;10.384;2023-04-26T13:54:42;2.53;;;1.10;;
16800;SDS011;8518;53.236;10.384;2023-04-26T13:57:07;2.03;;;1.00;;
16800;SDS011;8518;53.236;10.384;2023-04-26T13:59:33;6.00;;;1.00;;
16800;SDS011;8518;53.236;10.384;2023-04-26T14:01:58;2.70;;;1.00;;
16800;SDS011;8518;53.236;10.384;2023-04-26T14:07:46;3.03;;;1.30;;
16800;SDS011;8518;53.236;10.384;2023-04-26T14:13:34;5.30;;;1.37;;
16800;SDS011;8518;53.236;10.384;2023-04-26T14:16:00;3.43;;;1.40;;
16800;SDS011;8518;53.236;10.384;2023-04-26T14:18:25;3.03;;;1.00;;
16800;SDS011;8518;53.236;10.384;2023-04-26T14:20:51;3.10;;;1.00;;
16800;SDS011;8518;53.236;10.384;2023-04-26T14:26:39;3.67;;;1.30;;
16800;SDS011;8518;53.236;10.384;2023-04-26T14:29:05;3.93;;;1.20;;
16800;SDS011;8518;53.236;10.384;2023-04-26T14:31:31;4.57;;;1.67;;
16800;SDS011;8518;53.236;10.384;2023-04-26T14:37:19;5.07;;;1.40;;
16800;SDS011;8518;53.236;10.384;2023-04-26T14:43:08;2.63;;;0.83;;
16800;SDS011;8518;53.236;10.384;2023-04-26T14:45:34;1.70;;;0.90;;
16800;SDS011;8518;53.236;10.384;2023-04-26T14:48:00;4.40;;;1.10;;
16800;SDS011;8518;53.236;10.384;2023-04-26T14:50:26;1.93;;;0.70;;
16800;SDS011;8518;53.236;10.384;2023-04-26T14:56:14;6.07;;;1.20;;
16800;SDS011;8518;53.236;10.384;2023-04-26T15:02:01;2.33;;;0.90;;
16800;SDS011;8518;53.236;10.384;2023-04-26T15:07:50;3.00;;;0.70;;
16800;SDS011;8518;53.236;10.384;2023-04-26T15:10:17;2.57;;;0.90;;
16800;SDS011;8518;53.236;10.384;2023-04-26T15:12:43;5.10;;;1.30;;
16800;SDS011;8518;53.236;10.384;2023-04-26T15:15:08;2.90;;;1.00;;
16800;SDS011;8518;53.236;10.384;2023-04-26T15:17:34;6.40;;;1.10;;
16800;SDS011;8518;53.236;10.384;2023-04-26T15:20:00;2.20;;;0.87;;
16800;SDS011;8518;53.236;10.384;2023-04-26T15:22:26;2.70;;;0.90;;
16800;SDS011;8518;53.236;10.384;2023-04-26T15:24:51;3.47;;;1.00;;
16800;SDS011;8518;53.236;10.384;2023-04-26T15:27:17;4.30;;;1.10;;
16800;SDS011;8518;53.236;10.384;2023-04-26T15:29:43;4.43;;;1.40;;
16800;SDS011;8518;53.236;10.384;2023-04-26T15:32:08;3.57;;;1.13;;
16800;SDS011;8518;53.236;10.384;2023-04-26T15:37:56;3.77;;;1.33;;
16800;SDS011;8518;53.236;10.384;2023-04-26T15:40:22;4.17;;;1.30;;
16800;SDS011;8518;53.236;10.384;2023-04-26T15:46:13;4.63;;;1.10;;
16800;SDS011;8518;53.236;10.384;2023-04-26T15:52:01;2.97;;;0.80;;
16800;SDS011;8518;53.236;10.384;2023-04-26T15:57:49;4.33;;;1.50;;
16800;SDS011;8518;53.236;10.384;2023-04-26T16:00:15;5.77;;;1.03;;
16800;SDS011;8518;53.236;10.384;2023-04-26T16:02:41;3.80;;;0.90;;
16800;SDS011;8518;53.236;10.384;2023-04-26T16:05:14;2.53;;;0.80;;
16800;SDS011;8518;53.236;10.384;2023-04-26T16:07:40;5.33;;;1.00;;
16800;SDS011;8518;53.236;10.384;2023-04-26T16:10:06;3.03;;;1.00;;
16800;SDS011;8518;53.236;10.384;2023-04-26T16:12:33;4.60;;;1.13;;
16800;SDS011;8518;53.236;10.384;2023-04-26T16:15:06;5.80;;;1.17;;
16800;SDS011;8518;53.236;10.384;2023-04-26T16:17:36;3.67;;;1.10;;
16800;SDS011;8518;53.236;10.384;2023-04-26T16:20:05;3.63;;;1.10;;
16800;SDS011;8518;53.236;10.384;2023-04-26T16:22:35;3.80;;;1.03;;
16800;SDS011;8518;53.236;10.384;2023-04-26T16:25:06;4.27;;;1.07;;
16800;SDS011;8518;53.236;10.384;2023-04-26T16:27:33;3.80;;;1.27;;
16800;SDS011;8518;53.236;10.384;2023-04-26T16:30:01;5.23;;;1.20;;
16800;SDS011;8518;53.236;10.384;2023-04-26T16:32:27;5.43;;;1.33;;
16800;SDS011;8518;53.236;10.384;2023-04-26T16:34:54;2.80;;;1.23;;
16800;SDS011;8518;53.236;10.384;2023-04-26T16:37:20;4.37;;;1.30;;
16800;SDS011;8518;53.236;10.384;2023-04-26T16:39:45;4.23;;;1.30;;
16800;SDS011;8518;53.236;10.384;2023-04-26T16:42:11;3.57;;;1.10;;
16800;SDS011;8518;53.236;10.384;2023-04-26T16:47:58;3.93;;;1.00;;
16800;SDS011;8518;53.236;10.384;2023-04-26T16:50:24;2.07;;;0.87;;
16800;SDS011;8518;53.236;10.384;2023-04-26T16:56:12;3.53;;;1.00;;
16800;SDS011;8518;53.236;10.384;2023-04-26T16:58:37;4.57;;;1.10;;
16800;SDS011;8518;53.236;10.384;2023-04-26T17:01:06;3.27;;;1.30;;
16800;SDS011;8518;53.236;10.384;2023-04-26T17:06:56;8.17;;;1.60;;
16800;SDS011;8518;53.236;10.384;2023-04-26T17:09:22;4.47;;;1.17;;
16800;SDS011;8518;53.236;10.384;2023-04-26T17:11:48;4.77;;;1.10;;
16800;SDS011;8518;53.236;10.384;2023-04-26T17:17:36;6.20;;;1.60;;
16800;SDS011;8518;53.236;10.384;2023-04-26T17:20:01;5.77;;;1.27;;
16800;SDS011;8518;53.236;10.384;2023-04-26T17:22:30;3.57;;;1.23;;
16800;SDS011;8518;53.236;10.384;2023-04-26T17:24:56;4.23;;;1.47;;
16800;SDS011;8518;53.236;10.384;2023-04-26T17:27:21;3.00;;;1.20;;
16800;SDS011;8518;53.236;10.384;2023-04-26T17:29:48;5.40;;;1.43;;
16800;SDS011;8518;53.236;10.384;2023-04-26T17:32:14;5.60;;;1.60;;
16800;SDS011;8518;53.236;10.384;2023-04-26T17:34:40;3.90;;;1.20;;
16800;SDS011;8518;53.236;10.384;2023-04-26T17:37:05;4.80;;;1.50;;
16800;SDS011;8518;53.236;10.384;2023-04-26T17:39:31;4.07;;;1.30;;
16800;SDS011;8518;53.236;10.384;2023-04-26T17:41:57;5.03;;;1.53;;
16800;SDS011;8518;53.236;10.384;2023-04-26T17:47:44;3.33;;;1.03;;
16800;SDS011;8518;53.236;10.384;2023-04-26T17:50:10;5.73;;;1.40;;
16800;SDS011;8518;53.236;10.384;2023-04-26T17:52:36;3.83;;;1.30;;
16800;SDS011;8518;53.236;10.384;2023-04-26T17:55:02;4.30;;;1.30;;
16800;SDS011;8518;53.236;10.384;2023-04-26T17:57:30;3.30;;;1.27;;
16800;SDS011;8518;53.236;10.384;2023-04-26T17:59:55;4.63;;;1.20;;
16800;SDS011;8518;53.236;10.384;2023-04-26T18:02:21;2.47;;;0.90;;
16800;SDS011;8518;53.236;10.384;2023-04-26T18:04:50;7.43;;;2.07;;
16800;SDS011;8518;53.236;10.384;2023-04-26T18:07:16;7.33;;;1.40;;
16800;SDS011;8518;53.236;10.384;2023-04-26T18:09:45;4.87;;;1.60;;
16800;SDS011;8518;53.236;10.384;2023-04-26T18:12:10;6.47;;;2.40;;
16800;SDS011;8518;53.236;10.384;2023-04-26T18:17:58;9.83;;;3.37;;
16800;SDS011;8518;53.236;10.384;2023-04-26T18:23:46;3.77;;;1.27;;
16800;SDS011;8518;53.236;10.384;2023-04-26T18:26:12;3.73;;;1.10;;
16800;SDS011;8518;53.236;10.384;2023-04-26T18:28:37;3.23;;;1.30;;
16800;SDS011;8518;53.236;10.384;2023-04-26T18:31:03;4.67;;;1.20;;
16800;SDS011;8518;53.236;10.384;2023-04-26T18:36:50;3.83;;;1.10;;
16800;SDS011;8518;53.236;10.384;2023-04-26T18:39:16;4.83;;;1.27;;
16800;SDS011;8518;53.236;10.384;2023-04-26T18:41:42;2.80;;;1.17;;
16800;SDS011;8518;53.236;10.384;2023-04-26T18:47:29;4.13;;;1.40;;
16800;SDS011;8518;53.236;10.384;2023-04-26T18:49:55;5.70;;;1.70;;
16800;SDS011;8518;53.236;10.384;2023-04-26T18:52:21;4.67;;;1.37;;
16800;SDS011;8518;53.236;10.384;2023-04-26T18:54:46;2.63;;;1.30;;
16800;SDS011;8518;53.236;10.384;2023-04-26T18:57:12;5.53;;;1.23;;
16800;SDS011;8518;53.236;10.384;2023-04-26T18:59:38;3.00;;;1.17;;
16800;SDS011;8518;53.236;10.384;2023-04-26T19:02:07;6.40;;;1.70;;
16800;SDS011;8518;53.236;10.384;2023-04-26T19:07:55;6.43;;;3.07;;
16800;SDS011;8518;53.236;10.384;2023-04-26T19:10:21;4.27;;;2.40;;
16800;SDS011;8518;53.236;10.384;2023-04-26T19:16:12;8.30;;;4.07;;
16800;SDS011;8518;53.236;10.384;2023-04-26T19:18:38;9.87;;;4.40;;
16800;SDS011;8518;53.236;10.384;2023-04-26T19:21:11;8.63;;;4.70;;
16800;SDS011;8518;53.236;10.384;2023-04-26T19:26:58;8.17;;;2.53;;
16800;SDS011;8518;53.236;10.384;2023-04-26T19:32:47;4.07;;;2.97;;
16800;SDS011;8518;53.236;10.384;2023-04-26T19:35:14;8.40;;;2.60;;
16800;SDS011;8518;53.236;10.384;2023-04-26T19:37:40;4.40;;;2.50;;
16800;SDS011;8518;53.236;10.384;2023-04-26T19:40:06;6.40;;;2.63;;
16800;SDS011;8518;53.236;10.384;2023-04-26T19:42:33;10.13;;;3.37;;
16800;SDS011;8518;53.236;10.384;2023-04-26T19:44:59;7.80;;;3.53;;
16800;SDS011;8518;53.236;10.384;2023-04-26T19:47:26;6.23;;;2.80;;
16800;SDS011;8518;53.236;10.384;2023-04-26T19:49:52;4.57;;;2.20;;
16800;SDS011;8518;53.236;10.384;2023-04-26T19:52:19;7.00;;;1.90;;
16800;SDS011;8518;53.236;10.384;2023-04-26T19:54:48;5.07;;;1.80;;
16800;SDS011;8518;53.236;10.384;2023-04-26T19:57:13;4.80;;;1.60;;
16800;SDS011;8518;53.236;10.384;2023-04-26T19:59:39;4.67;;;1.70;;
16800;SDS011;8518;53.236;10.384;2023-04-26T20:02:05;3.43;;;1.40;;
16800;SDS011;8518;53.236;10.384;2023-04-26T20:07:52;4.43;;;1.30;;
16800;SDS011;8518;53.236;10.384;2023-04-26T20:10:18;5.60;;;1.90;;
16800;SDS011;8518;53.236;10.384;2023-04-26T20:16:08;3.60;;;1.93;;
16800;SDS011;8518;53.236;10.384;2023-04-26T20:18:34;6.27;;;2.23;;
16800;SDS011;8518;53.236;10.384;2023-04-26T20:21:00;5.57;;;1.90;;
16800;SDS011;8518;53.236;10.384;2023-04-26T20:26:49;4.33;;;1.93;;
16800;SDS011;8518;53.236;10.384;2023-04-26T20:29:14;4.53;;;1.40;;
16800;SDS011;8518;53.236;10.384;2023-04-26T20:31:40;4.50;;;2.00;;
16800;SDS011;8518;53.236;10.384;2023-04-26T20:37:28;3.00;;;1.43;;
16800;SDS011;8518;53.236;10.384;2023-04-26T20:39:54;3.37;;;1.30;;
16800;SDS011;8518;53.236;10.384;2023-04-26T20:42:19;4.57;;;1.60;;
16800;SDS011;8518;53.236;10.384;2023-04-26T20:44:46;3.17;;;1.60;;